sensor_id;sensor_type;location;lat;lon;timestamp;pressure;altitude;pressure_sealevel;temperature;humidity
78800;BME280;68148;55.328;86.106;2023-09-07T00:01:31;99431.66;;;8.71;100.00
78800;BME280;68148;55.328;86.106;2023-09-07T00:03:57;99431.72;;;8.77;100.00
78800;BME280;68148;55.328;86.106;2023-09-07T00:06:23;99433.63;;;8.84;100.00
78800;BME280;68148;55.328;86.106;2023-09-07T00:08:49;99437.19;;;8.91;100.00
78800;BME280;68148;55.328;86.106;2023-09-07T00:11:15;99440.06;;;8.96;100.00
78800;BME280;68148;55.328;86.106;2023-09-07T00:13:40;99442.16;;;9.00;100.00
78800;BME280;68148;55.328;86.106;2023-09-07T00:16:06;99439.34;;;9.02;100.00
78800;BME280;68148;55.328;86.106;2023-09-07T00:18:32;99434.97;;;9.09;100.00
78800;BME280;68148;55.328;86.106;2023-09-07T00:20:59;99442.50;;;9.12;100.00
78800;BME280;68148;55.328;86.106;2023-09-07T00:23:25;99446.38;;;9.16;100.00
78800;BME280;68148;55.328;86.106;2023-09-07T00:25:51;99439.13;;;9.18;100.00
78800;BME280;68148;55.328;86.106;2023-09-07T00:28:16;99436.75;;;9.23;100.00
78800;BME280;68148;55.328;86.106;2023-09-07T00:30:42;99441.66;;;9.26;99.66
78800;BME280;68148;55.328;86.106;2023-09-07T00:33:09;99437.28;;;9.34;100.00
78800;BME280;68148;55.328;86.106;2023-09-07T00:35:35;99434.97;;;9.45;99.20
78800;BME280;68148;55.328;86.106;2023-09-07T00:38:01;99435.06;;;9.52;98.60
78800;BME280;68148;55.328;86.106;2023-09-07T00:40:26;99432.91;;;9.62;98.43
78800;BME280;68148;55.328;86.106;2023-09-07T00:42:53;99437.72;;;9.73;98.06
78800;BME280;68148;55.328;86.106;2023-09-07T00:45:19;99447.31;;;9.81;97.50
78800;BME280;68148;55.328;86.106;2023-09-07T00:47:45;99446.88;;;9.77;97.32
78800;BME280;68148;55.328;86.106;2023-09-07T00:50:11;99445.94;;;9.85;97.27
78800;BME280;68148;55.328;86.106;2023-09-07T00:52:38;99440.66;;;9.85;96.58
78800;BME280;68148;55.328;86.106;2023-09-07T00:55:08;99448.00;;;9.90;96.61
78800;BME280;68148;55.328;86.106;2023-09-07T00:57:38;99453.88;;;9.92;96.42
78800;BME280;68148;55.328;86.106;2023-09-07T01:00:05;99455.50;;;9.93;96.58
78800;BME280;68148;55.328;86.106;2023-09-07T01:02:31;99448.41;;;9.93;96.26
78800;BME280;68148;55.328;86.106;2023-09-07T01:04:57;99453.31;;;9.96;96.76
78800;BME280;68148;55.328;86.106;2023-09-07T01:07:26;99449.50;;;9.99;96.96
78800;BME280;68148;55.328;86.106;2023-09-07T01:09:56;99449.28;;;10.00;96.78
78800;BME280;68148;55.328;86.106;2023-09-07T01:12:23;99447.31;;;10.02;96.32
78800;BME280;68148;55.328;86.106;2023-09-07T01:14:49;99444.22;;;9.99;96.35
78800;BME280;68148;55.328;86.106;2023-09-07T01:17:15;99448.25;;;9.95;97.11
78800;BME280;68148;55.328;86.106;2023-09-07T01:19:42;99449.88;;;9.96;97.29
78800;BME280;68148;55.328;86.106;2023-09-07T01:22:09;99446.22;;;9.97;97.54
78800;BME280;68148;55.328;86.106;2023-09-07T01:24:36;99443.78;;;9.95;97.93
78800;BME280;68148;55.328;86.106;2023-09-07T01:27:04;99447.88;;;9.98;98.91
78800;BME280;68148;55.328;86.106;2023-09-07T01:29:31;99451.94;;;10.00;97.83
78800;BME280;68148;55.328;86.106;2023-09-07T01:31:57;99449.28;;;10.00;97.84
78800;BME280;68148;55.328;86.106;2023-09-07T01:34:24;99446.28;;;10.03;97.71
78800;BME280;68148;55.328;86.106;2023-09-07T01:36:50;99448.94;;;10.03;98.24
78800;BME280;68148;55.328;86.106;2023-09-07T01:39:16;99452.38;;;10.04;98.00
78800;BME280;68148;55.328;86.106;2023-09-07T01:41:42;99449.38;;;10.07;97.60
78800;BME280;68148;55.328;86.106;2023-09-07T01:44:08;99462.16;;;10.10;98.56
78800;BME280;68148;55.328;86.106;2023-09-07T01:46:33;99464.84;;;10.17;98.82
78800;BME280;68148;55.328;86.106;2023-09-07T01:48:59;99454.75;;;10.20;98.40
78800;BME280;68148;55.328;86.106;2023-09-07T01:51:25;99459.09;;;10.28;98.29
78800;BME280;68148;55.328;86.106;2023-09-07T01:53:50;99456.88;;;10.32;99.46
78800;BME280;68148;55.328;86.106;2023-09-07T01:56:17;99459.22;;;10.20;100.00
78800;BME280;68148;55.328;86.106;2023-09-07T01:58:42;99454.66;;;10.28;99.22
78800;BME280;68148;55.328;86.106;2023-09-07T02:01:29;99455.50;;;10.36;98.73
78800;BME280;68148;55.328;86.106;2023-09-07T02:03:56;99456.50;;;10.35;98.65
78800;BME280;68148;55.328;86.106;2023-09-07T02:06:22;99454.22;;;10.25;98.44
78800;BME280;68148;55.328;86.106;2023-09-07T02:08:49;99462.78;;;10.34;97.94
78800;BME280;68148;55.328;86.106;2023-09-07T02:11:15;99456.03;;;10.24;98.47
78800;BME280;68148;55.328;86.106;2023-09-07T02:13:41;99453.44;;;10.31;97.85
78800;BME280;68148;55.328;86.106;2023-09-07T02:16:07;99461.97;;;10.33;97.75
78800;BME280;68148;55.328;86.106;2023-09-07T02:18:33;99465.44;;;10.34;98.05
78800;BME280;68148;55.328;86.106;2023-09-07T02:21:05;99462.22;;;10.38;97.55
78800;BME280;68148;55.328;86.106;2023-09-07T02:23:31;99462.47;;;10.22;98.64
78800;BME280;68148;55.328;86.106;2023-09-07T02:25:58;99456.56;;;10.20;98.50
78800;BME280;68148;55.328;86.106;2023-09-07T02:28:25;99466.81;;;10.08;98.71
78800;BME280;68148;55.328;86.106;2023-09-07T02:30:51;99471.19;;;10.01;98.41
78800;BME280;68148;55.328;86.106;2023-09-07T02:33:17;99471.41;;;9.78;99.45
78800;BME280;68148;55.328;86.106;2023-09-07T02:35:43;99480.00;;;9.87;99.50
78800;BME280;68148;55.328;86.106;2023-09-07T02:38:09;99478.75;;;9.83;100.00
78800;BME280;68148;55.328;86.106;2023-09-07T02:40:41;99480.03;;;9.93;99.88
78800;BME280;68148;55.328;86.106;2023-09-07T02:43:08;99482.97;;;9.98;99.99
78800;BME280;68148;55.328;86.106;2023-09-07T02:45:34;99483.13;;;9.97;99.48
78800;BME280;68148;55.328;86.106;2023-09-07T02:48:00;99480.13;;;10.00;100.00
78800;BME280;68148;55.328;86.106;2023-09-07T02:50:26;99486.28;;;10.07;99.18
78800;BME280;68148;55.328;86.106;2023-09-07T02:52:53;99485.88;;;10.10;99.71
78800;BME280;68148;55.328;86.106;2023-09-07T02:55:19;99486.72;;;10.11;99.84
78800;BME280;68148;55.328;86.106;2023-09-07T02:57:45;99492.97;;;10.10;100.00
78800;BME280;68148;55.328;86.106;2023-09-07T03:00:11;99500.59;;;10.19;100.00
78800;BME280;68148;55.328;86.106;2023-09-07T03:02:37;99487.53;;;10.33;99.42
78800;BME280;68148;55.328;86.106;2023-09-07T03:05:03;99492.19;;;10.31;98.10
78800;BME280;68148;55.328;86.106;2023-09-07T03:07:33;99488.97;;;10.35;98.54
78800;BME280;68148;55.328;86.106;2023-09-07T03:09:59;99495.34;;;10.47;97.91
78800;BME280;68148;55.328;86.106;2023-09-07T03:12:26;99496.25;;;10.61;98.08
78800;BME280;68148;55.328;86.106;2023-09-07T03:14:52;99494.69;;;10.67;97.62
78800;BME280;68148;55.328;86.106;2023-09-07T03:17:18;99494.66;;;10.60;96.27
78800;BME280;68148;55.328;86.106;2023-09-07T03:19:44;99499.78;;;10.68;97.90
78800;BME280;68148;55.328;86.106;2023-09-07T03:22:10;99501.47;;;10.76;98.38
78800;BME280;68148;55.328;86.106;2023-09-07T03:24:35;99503.31;;;10.82;95.76
78800;BME280;68148;55.328;86.106;2023-09-07T03:27:02;99507.91;;;10.67;96.30
78800;BME280;68148;55.328;86.106;2023-09-07T03:29:29;99507.91;;;10.67;96.50
78800;BME280;68148;55.328;86.106;2023-09-07T03:31:55;99511.19;;;10.75;95.44
78800;BME280;68148;55.328;86.106;2023-09-07T03:34:21;99512.84;;;10.83;95.61
78800;BME280;68148;55.328;86.106;2023-09-07T03:36:47;99512.91;;;10.90;96.08
78800;BME280;68148;55.328;86.106;2023-09-07T03:39:12;99510.19;;;11.11;94.67
78800;BME280;68148;55.328;86.106;2023-09-07T03:41:38;99506.50;;;11.06;93.53
78800;BME280;68148;55.328;86.106;2023-09-07T03:44:04;99514.28;;;11.14;94.08
78800;BME280;68148;55.328;86.106;2023-09-07T03:46:30;99520.94;;;11.44;93.45
78800;BME280;68148;55.328;86.106;2023-09-07T03:48:56;99514.66;;;11.52;92.46
78800;BME280;68148;55.328;86.106;2023-09-07T03:51:22;99513.63;;;11.53;92.15
78800;BME280;68148;55.328;86.106;2023-09-07T03:53:47;99510.22;;;11.72;90.38
78800;BME280;68148;55.328;86.106;2023-09-07T03:56:13;99514.84;;;11.50;90.41
78800;BME280;68148;55.328;86.106;2023-09-07T03:58:39;99521.09;;;11.43;92.69
78800;BME280;68148;55.328;86.106;2023-09-07T04:01:09;99517.25;;;11.45;94.07
78800;BME280;68148;55.328;86.106;2023-09-07T04:03:35;99514.25;;;11.55;94.46
78800;BME280;68148;55.328;86.106;2023-09-07T04:06:00;99518.97;;;11.66;92.93
78800;BME280;68148;55.328;86.106;2023-09-07T04:08:26;99521.53;;;11.46;91.35
78800;BME280;68148;55.328;86.106;2023-09-07T04:10:52;99517.72;;;11.69;91.32
78800;BME280;68148;55.328;86.106;2023-09-07T04:13:18;99524.16;;;11.46;90.52
78800;BME280;68148;55.328;86.106;2023-09-07T04:15:45;99515.06;;;11.56;90.28
78800;BME280;68148;55.328;86.106;2023-09-07T04:18:12;99520.00;;;11.65;88.74
78800;BME280;68148;55.328;86.106;2023-09-07T04:20:41;99505.56;;;11.81;90.03
78800;BME280;68148;55.328;86.106;2023-09-07T04:23:06;99502.19;;;11.87;89.00
78800;BME280;68148;55.328;86.106;2023-09-07T04:25:32;99506.19;;;11.76;88.92
78800;BME280;68148;55.328;86.106;2023-09-07T04:27:58;99496.47;;;11.84;88.06
78800;BME280;68148;55.328;86.106;2023-09-07T04:30:24;99501.81;;;12.03;88.29
78800;BME280;68148;55.328;86.106;2023-09-07T04:32:50;99501.59;;;12.05;87.63
78800;BME280;68148;55.328;86.106;2023-09-07T04:35:15;99498.66;;;11.80;87.63
78800;BME280;68148;55.328;86.106;2023-09-07T04:37:42;99498.66;;;11.80;87.18
78800;BME280;68148;55.328;86.106;2023-09-07T04:40:09;99497.91;;;11.93;85.91
78800;BME280;68148;55.328;86.106;2023-09-07T04:42:35;99502.38;;;11.99;85.74
78800;BME280;68148;55.328;86.106;2023-09-07T04:45:01;99496.47;;;11.90;85.52
78800;BME280;68148;55.328;86.106;2023-09-07T04:47:27;99488.09;;;11.73;86.75
78800;BME280;68148;55.328;86.106;2023-09-07T04:49:52;99489.28;;;11.77;86.18
78800;BME280;68148;55.328;86.106;2023-09-07T04:52:18;99500.34;;;11.94;86.74
78800;BME280;68148;55.328;86.106;2023-09-07T04:54:44;99494.28;;;12.00;86.86
78800;BME280;68148;55.328;86.106;2023-09-07T04:57:10;99499.53;;;11.94;87.01
78800;BME280;68148;55.328;86.106;2023-09-07T04:59:36;99508.13;;;12.09;85.15
78800;BME280;68148;55.328;86.106;2023-09-07T05:02:02;99511.38;;;12.18;84.08
78800;BME280;68148;55.328;86.106;2023-09-07T05:04:28;99504.44;;;12.03;85.29
78800;BME280;68148;55.328;86.106;2023-09-07T05:06:55;99503.44;;;12.24;85.13
78800;BME280;68148;55.328;86.106;2023-09-07T05:09:21;99506.28;;;12.10;83.27
78800;BME280;68148;55.328;86.106;2023-09-07T05:11:47;99512.59;;;12.15;82.54
78800;BME280;68148;55.328;86.106;2023-09-07T05:14:12;99518.69;;;12.16;81.95
78800;BME280;68148;55.328;86.106;2023-09-07T05:16:38;99513.63;;;12.08;82.73
78800;BME280;68148;55.328;86.106;2023-09-07T05:19:04;99519.09;;;12.19;82.89
78800;BME280;68148;55.328;86.106;2023-09-07T05:21:29;99516.88;;;12.16;82.92
78800;BME280;68148;55.328;86.106;2023-09-07T05:23:55;99522.56;;;12.20;83.55
78800;BME280;68148;55.328;86.106;2023-09-07T05:26:22;99515.03;;;12.23;81.83
78800;BME280;68148;55.328;86.106;2023-09-07T05:28:48;99525.63;;;12.30;82.72
78800;BME280;68148;55.328;86.106;2023-09-07T05:31:13;99533.78;;;12.22;81.87
78800;BME280;68148;55.328;86.106;2023-09-07T05:33:39;99529.09;;;12.37;81.99
78800;BME280;68148;55.328;86.106;2023-09-07T05:36:05;99533.78;;;12.35;80.41
78800;BME280;68148;55.328;86.106;2023-09-07T05:38:31;99514.25;;;12.16;83.70
78800;BME280;68148;55.328;86.106;2023-09-07T05:40:56;99512.00;;;12.26;81.97
78800;BME280;68148;55.328;86.106;2023-09-07T05:43:22;99516.25;;;12.08;83.12
78800;BME280;68148;55.328;86.106;2023-09-07T05:45:48;99520.13;;;12.18;81.89
78800;BME280;68148;55.328;86.106;2023-09-07T05:48:14;99532.53;;;12.05;81.54
78800;BME280;68148;55.328;86.106;2023-09-07T05:50:40;99525.97;;;11.87;82.71
78800;BME280;68148;55.328;86.106;2023-09-07T05:53:06;99536.34;;;11.89;83.76
78800;BME280;68148;55.328;86.106;2023-09-07T05:55:32;99533.69;;;11.89;83.81
78800;BME280;68148;55.328;86.106;2023-09-07T05:57:59;99535.25;;;11.76;82.96
78800;BME280;68148;55.328;86.106;2023-09-07T06:00:24;99550.66;;;11.60;83.14
78800;BME280;68148;55.328;86.106;2023-09-07T06:02:50;99557.97;;;11.64;83.14
78800;BME280;68148;55.328;86.106;2023-09-07T06:05:17;99549.84;;;11.59;83.54
78800;BME280;68148;55.328;86.106;2023-09-07T06:07:43;99545.56;;;11.58;84.64
78800;BME280;68148;55.328;86.106;2023-09-07T06:10:09;99539.97;;;11.33;85.34
78800;BME280;68148;55.328;86.106;2023-09-07T06:12:35;99557.06;;;11.37;84.94
78800;BME280;68148;55.328;86.106;2023-09-07T06:15:01;99548.53;;;11.35;86.08
78800;BME280;68148;55.328;86.106;2023-09-07T06:17:27;99545.63;;;11.30;87.56
78800;BME280;68148;55.328;86.106;2023-09-07T06:19:54;99549.78;;;11.46;87.13
78800;BME280;68148;55.328;86.106;2023-09-07T06:22:20;99557.88;;;11.38;87.14
78800;BME280;68148;55.328;86.106;2023-09-07T06:24:46;99549.94;;;11.38;87.86
78800;BME280;68148;55.328;86.106;2023-09-07T06:27:12;99563.47;;;11.21;88.32
78800;BME280;68148;55.328;86.106;2023-09-07T06:29:38;99560.22;;;11.19;87.58
78800;BME280;68148;55.328;86.106;2023-09-07T06:32:04;99560.66;;;11.29;86.74
78800;BME280;68148;55.328;86.106;2023-09-07T06:34:29;99556.47;;;11.07;87.80
78800;BME280;68148;55.328;86.106;2023-09-07T06:36:55;99559.31;;;11.06;88.12
78800;BME280;68148;55.328;86.106;2023-09-07T06:39:21;99555.44;;;11.01;88.75
78800;BME280;68148;55.328;86.106;2023-09-07T06:41:47;99566.69;;;11.17;88.26
78800;BME280;68148;55.328;86.106;2023-09-07T06:44:12;99564.47;;;11.20;87.14
78800;BME280;68148;55.328;86.106;2023-09-07T06:46:38;99558.19;;;11.21;86.71
78800;BME280;68148;55.328;86.106;2023-09-07T06:49:04;99554.00;;;10.99;87.86
78800;BME280;68148;55.328;86.106;2023-09-07T06:51:30;99560.53;;;11.03;87.53
78800;BME280;68148;55.328;86.106;2023-09-07T06:53:56;99566.97;;;10.94;88.36
78800;BME280;68148;55.328;86.106;2023-09-07T06:56:22;99566.16;;;10.93;89.15
78800;BME280;68148;55.328;86.106;2023-09-07T06:58:48;99574.31;;;10.98;89.90
78800;BME280;68148;55.328;86.106;2023-09-07T07:01:14;99571.38;;;10.87;89.23
78800;BME280;68148;55.328;86.106;2023-09-07T07:03:41;99580.78;;;10.96;89.35
78800;BME280;68148;55.328;86.106;2023-09-07T07:06:07;99580.31;;;10.86;90.63
78800;BME280;68148;55.328;86.106;2023-09-07T07:08:33;99586.63;;;10.91;90.67
78800;BME280;68148;55.328;86.106;2023-09-07T07:10:59;99585.66;;;10.92;91.26
78800;BME280;68148;55.328;86.106;2023-09-07T07:13:25;99585.66;;;10.92;91.64
78800;BME280;68148;55.328;86.106;2023-09-07T07:15:51;99583.69;;;11.01;90.91
78800;BME280;68148;55.328;86.106;2023-09-07T07:18:17;99591.44;;;10.81;91.11
78800;BME280;68148;55.328;86.106;2023-09-07T07:20:43;99585.91;;;10.76;90.67
78800;BME280;68148;55.328;86.106;2023-09-07T07:23:10;99594.41;;;10.71;91.52
78800;BME280;68148;55.328;86.106;2023-09-07T07:25:36;99592.75;;;10.70;91.65
78800;BME280;68148;55.328;86.106;2023-09-07T07:28:05;99594.59;;;10.70;92.32
78800;BME280;68148;55.328;86.106;2023-09-07T07:30:32;99595.22;;;10.72;91.90
78800;BME280;68148;55.328;86.106;2023-09-07T07:32:58;99592.72;;;10.64;93.09
78800;BME280;68148;55.328;86.106;2023-09-07T07:35:24;99595.25;;;10.50;93.50
78800;BME280;68148;55.328;86.106;2023-09-07T07:37:50;99593.16;;;10.67;93.47
78800;BME280;68148;55.328;86.106;2023-09-07T07:40:15;99594.50;;;10.85;93.14
78800;BME280;68148;55.328;86.106;2023-09-07T07:42:42;99598.19;;;10.84;92.74
78800;BME280;68148;55.328;86.106;2023-09-07T07:45:08;99599.34;;;10.81;92.85
78800;BME280;68148;55.328;86.106;2023-09-07T07:47:34;99604.44;;;10.83;92.62
78800;BME280;68148;55.328;86.106;2023-09-07T07:49:59;99600.41;;;10.87;92.28
78800;BME280;68148;55.328;86.106;2023-09-07T07:52:25;99596.00;;;10.94;91.96
78800;BME280;68148;55.328;86.106;2023-09-07T07:54:51;99600.91;;;10.97;91.96
78800;BME280;68148;55.328;86.106;2023-09-07T07:57:16;99596.47;;;11.04;93.13
78800;BME280;68148;55.328;86.106;2023-09-07T07:59:42;99607.13;;;11.17;92.99
78800;BME280;68148;55.328;86.106;2023-09-07T08:02:08;99601.09;;;11.23;93.78
78800;BME280;68148;55.328;86.106;2023-09-07T08:04:34;99602.94;;;11.29;92.53
78800;BME280;68148;55.328;86.106;2023-09-07T08:07:00;99606.81;;;11.27;93.10
78800;BME280;68148;55.328;86.106;2023-09-07T08:09:25;99611.09;;;11.35;92.67
78800;BME280;68148;55.328;86.106;2023-09-07T08:11:52;99605.41;;;11.31;91.58
78800;BME280;68148;55.328;86.106;2023-09-07T08:14:17;99604.97;;;11.27;93.14
78800;BME280;68148;55.328;86.106;2023-09-07T08:16:43;99614.75;;;11.34;92.90
78800;BME280;68148;55.328;86.106;2023-09-07T08:19:09;99612.16;;;11.40;93.48
78800;BME280;68148;55.328;86.106;2023-09-07T08:21:34;99609.78;;;11.52;93.73
78800;BME280;68148;55.328;86.106;2023-09-07T08:24:00;99619.72;;;11.50;93.12
78800;BME280;68148;55.328;86.106;2023-09-07T08:26:26;99622.00;;;11.53;93.46
78800;BME280;68148;55.328;86.106;2023-09-07T08:28:52;99618.78;;;11.64;93.49
78800;BME280;68148;55.328;86.106;2023-09-07T08:31:17;99627.34;;;11.66;92.65
78800;BME280;68148;55.328;86.106;2023-09-07T08:33:43;99626.09;;;11.62;93.17
78800;BME280;68148;55.328;86.106;2023-09-07T08:36:09;99618.19;;;11.69;92.61
78800;BME280;68148;55.328;86.106;2023-09-07T08:38:34;99631.06;;;11.78;93.49
78800;BME280;68148;55.328;86.106;2023-09-07T08:41:02;99623.13;;;11.78;90.82
78800;BME280;68148;55.328;86.106;2023-09-07T08:43:29;99629.91;;;11.88;92.19
78800;BME280;68148;55.328;86.106;2023-09-07T08:46:02;99629.03;;;11.81;89.33
78800;BME280;68148;55.328;86.106;2023-09-07T08:48:30;99629.25;;;11.79;89.67
78800;BME280;68148;55.328;86.106;2023-09-07T08:50:56;99633.56;;;11.87;89.75
78800;BME280;68148;55.328;86.106;2023-09-07T08:53:22;99634.38;;;11.87;88.23
78800;BME280;68148;55.328;86.106;2023-09-07T08:55:49;99638.28;;;11.98;90.70
78800;BME280;68148;55.328;86.106;2023-09-07T08:58:14;99643.34;;;11.93;87.05
78800;BME280;68148;55.328;86.106;2023-09-07T09:00:41;99635.84;;;11.96;86.48
78800;BME280;68148;55.328;86.106;2023-09-07T09:03:08;99640.97;;;12.05;88.50
78800;BME280;68148;55.328;86.106;2023-09-07T09:05:34;99637.47;;;11.91;85.37
78800;BME280;68148;55.328;86.106;2023-09-07T09:08:02;99637.91;;;12.01;88.18
78800;BME280;68148;55.328;86.106;2023-09-07T09:10:28;99640.97;;;12.11;87.78
78800;BME280;68148;55.328;86.106;2023-09-07T09:12:54;99640.81;;;12.19;88.26
78800;BME280;68148;55.328;86.106;2023-09-07T09:15:21;99644.88;;;12.22;86.47
78800;BME280;68148;55.328;86.106;2023-09-07T09:17:47;99640.44;;;12.36;89.47
78800;BME280;68148;55.328;86.106;2023-09-07T09:20:26;99643.75;;;12.51;89.25
78800;BME280;68148;55.328;86.106;2023-09-07T09:22:52;99641.72;;;12.60;86.36
78800;BME280;68148;55.328;86.106;2023-09-07T09:25:19;99639.28;;;12.78;88.10
78800;BME280;68148;55.328;86.106;2023-09-07T09:27:44;99649.06;;;12.91;86.60
78800;BME280;68148;55.328;86.106;2023-09-07T09:30:10;99648.44;;;12.89;84.38
78800;BME280;68148;55.328;86.106;2023-09-07T09:32:36;99646.84;;;12.94;85.30
78800;BME280;68148;55.328;86.106;2023-09-07T09:35:03;99652.94;;;13.08;86.86
78800;BME280;68148;55.328;86.106;2023-09-07T09:37:29;99655.00;;;13.19;87.44
78800;BME280;68148;55.328;86.106;2023-09-07T09:39:56;99658.66;;;13.32;87.66
78800;BME280;68148;55.328;86.106;2023-09-07T09:42:23;99652.31;;;13.46;86.72
78800;BME280;68148;55.328;86.106;2023-09-07T09:44:50;99661.91;;;13.47;84.88
78800;BME280;68148;55.328;86.106;2023-09-07T09:47:18;99660.50;;;13.24;81.34
78800;BME280;68148;55.328;86.106;2023-09-07T09:49:46;99660.88;;;13.21;81.98
78800;BME280;68148;55.328;86.106;2023-09-07T09:52:13;99659.06;;;13.02;83.15
78800;BME280;68148;55.328;86.106;2023-09-07T09:54:39;99661.91;;;13.00;83.41
78800;BME280;68148;55.328;86.106;2023-09-07T09:57:06;99661.28;;;13.05;83.65
78800;BME280;68148;55.328;86.106;2023-09-07T09:59:32;99670.47;;;13.16;82.64
78800;BME280;68148;55.328;86.106;2023-09-07T10:01:58;99660.88;;;13.08;82.65
78800;BME280;68148;55.328;86.106;2023-09-07T10:04:24;99662.94;;;13.06;83.42
78800;BME280;68148;55.328;86.106;2023-09-07T10:06:54;99669.25;;;13.05;83.31
78800;BME280;68148;55.328;86.106;2023-09-07T10:09:20;99668.03;;;12.94;83.85
78800;BME280;68148;55.328;86.106;2023-09-07T10:11:51;99679.63;;;13.00;83.99
78800;BME280;68148;55.328;86.106;2023-09-07T10:14:18;99671.28;;;12.83;82.87
78800;BME280;68148;55.328;86.106;2023-09-07T10:16:46;99677.38;;;12.70;82.66
78800;BME280;68148;55.328;86.106;2023-09-07T10:19:16;99676.78;;;12.82;84.38
78800;BME280;68148;55.328;86.106;2023-09-07T10:21:42;99673.50;;;12.79;84.03
78800;BME280;68148;55.328;86.106;2023-09-07T10:24:08;99681.88;;;12.76;82.86
78800;BME280;68148;55.328;86.106;2023-09-07T10:27:13;99674.72;;;12.64;82.34
78800;BME280;68148;55.328;86.106;2023-09-07T10:29:46;99672.06;;;12.64;82.89
78800;BME280;68148;55.328;86.106;2023-09-07T10:32:15;99673.06;;;12.63;83.31
78800;BME280;68148;55.328;86.106;2023-09-07T10:34:44;99680.19;;;12.56;84.19
78800;BME280;68148;55.328;86.106;2023-09-07T10:37:13;99683.44;;;12.51;84.23
78800;BME280;68148;55.328;86.106;2023-09-07T10:39:40;99687.94;;;12.57;84.79
78800;BME280;68148;55.328;86.106;2023-09-07T10:42:06;99679.19;;;12.57;83.93
78800;BME280;68148;55.328;86.106;2023-09-07T10:44:32;99681.41;;;12.53;84.33
78800;BME280;68148;55.328;86.106;2023-09-07T10:46:58;99677.53;;;12.49;83.95
78800;BME280;68148;55.328;86.106;2023-09-07T10:49:23;99676.09;;;12.46;83.71
78800;BME280;68148;55.328;86.106;2023-09-07T10:51:49;99678.91;;;12.32;85.51
78800;BME280;68148;55.328;86.106;2023-09-07T10:54:22;99678.47;;;12.28;85.46
78800;BME280;68148;55.328;86.106;2023-09-07T10:56:49;99683.81;;;12.35;85.47
78800;BME280;68148;55.328;86.106;2023-09-07T10:59:16;99685.81;;;12.33;85.41
78800;BME280;68148;55.328;86.106;2023-09-07T11:01:44;99688.47;;;12.33;85.31
78800;BME280;68148;55.328;86.106;2023-09-07T11:04:10;99686.41;;;12.28;85.13
78800;BME280;68148;55.328;86.106;2023-09-07T11:06:35;99679.13;;;12.30;85.88
78800;BME280;68148;55.328;86.106;2023-09-07T11:09:03;99687.22;;;12.28;85.89
78800;BME280;68148;55.328;86.106;2023-09-07T11:11:29;99681.72;;;12.23;86.13
78800;BME280;68148;55.328;86.106;2023-09-07T11:13:57;99678.06;;;12.24;85.82
78800;BME280;68148;55.328;86.106;2023-09-07T11:16:25;99680.69;;;12.24;85.70
78800;BME280;68148;55.328;86.106;2023-09-07T11:18:51;99672.53;;;12.19;86.24
78800;BME280;68148;55.328;86.106;2023-09-07T11:21:17;99671.94;;;12.17;86.53
78800;BME280;68148;55.328;86.106;2023-09-07T11:23:43;99675.78;;;12.15;86.42
78800;BME280;68148;55.328;86.106;2023-09-07T11:26:10;99675.78;;;12.15;86.90
78800;BME280;68148;55.328;86.106;2023-09-07T11:28:37;99672.13;;;12.16;86.40
78800;BME280;68148;55.328;86.106;2023-09-07T11:31:03;99677.84;;;12.19;86.87
78800;BME280;68148;55.328;86.106;2023-09-07T11:33:33;99683.97;;;12.26;86.76
78800;BME280;68148;55.328;86.106;2023-09-07T11:35:59;99685.59;;;12.27;86.67
78800;BME280;68148;55.328;86.106;2023-09-07T11:38:36;99686.84;;;12.32;86.33
78800;BME280;68148;55.328;86.106;2023-09-07T11:41:03;99689.28;;;12.33;86.28
78800;BME280;68148;55.328;86.106;2023-09-07T11:43:30;99690.13;;;12.34;86.89
78800;BME280;68148;55.328;86.106;2023-09-07T11:45:56;99692.16;;;12.38;86.11
78800;BME280;68148;55.328;86.106;2023-09-07T11:48:22;99685.81;;;12.33;86.63
78800;BME280;68148;55.328;86.106;2023-09-07T11:50:48;99690.34;;;12.39;86.58
78800;BME280;68148;55.328;86.106;2023-09-07T11:53:14;99686.66;;;12.40;86.21
78800;BME280;68148;55.328;86.106;2023-09-07T11:55:39;99693.16;;;12.31;85.51
78800;BME280;68148;55.328;86.106;2023-09-07T11:58:05;99691.59;;;12.56;85.63
78800;BME280;68148;55.328;86.106;2023-09-07T12:00:31;99695.28;;;12.75;83.05
78800;BME280;68148;55.328;86.106;2023-09-07T12:02:57;99685.75;;;13.07;81.84
78800;BME280;68148;55.328;86.106;2023-09-07T12:05:24;99694.31;;;13.36;80.71
78800;BME280;68148;55.328;86.106;2023-09-07T12:07:49;99686.97;;;13.44;77.38
78800;BME280;68148;55.328;86.106;2023-09-07T12:10:15;99697.19;;;13.47;76.27
78800;BME280;68148;55.328;86.106;2023-09-07T12:12:43;99684.94;;;13.60;79.22
78800;BME280;68148;55.328;86.106;2023-09-07T12:15:10;99693.28;;;13.63;77.36
78800;BME280;68148;55.328;86.106;2023-09-07T12:17:36;99697.19;;;13.47;77.79
78800;BME280;68148;55.328;86.106;2023-09-07T12:20:02;99694.72;;;13.19;77.30
78800;BME280;68148;55.328;86.106;2023-09-07T12:22:28;99703.50;;;12.93;77.99
78800;BME280;68148;55.328;86.106;2023-09-07T12:24:55;99698.34;;;12.65;78.86
78800;BME280;68148;55.328;86.106;2023-09-07T12:27:22;99705.63;;;12.43;78.98
78800;BME280;68148;55.328;86.106;2023-09-07T12:29:47;99713.69;;;12.28;79.43
78800;BME280;68148;55.328;86.106;2023-09-07T12:32:14;99714.06;;;12.12;79.89
78800;BME280;68148;55.328;86.106;2023-09-07T12:34:40;99722.91;;;11.98;79.91
78800;BME280;68148;55.328;86.106;2023-09-07T12:37:06;99719.31;;;11.77;79.89
78800;BME280;68148;55.328;86.106;2023-09-07T12:39:32;99721.09;;;11.70;80.54
78800;BME280;68148;55.328;86.106;2023-09-07T12:41:58;99724.13;;;11.67;81.10
78800;BME280;68148;55.328;86.106;2023-09-07T12:44:24;99724.28;;;11.59;81.19
78800;BME280;68148;55.328;86.106;2023-09-07T12:46:51;99721.19;;;11.56;82.07